Terminal Aerodrome Forecast
Issued by NWS

Home | Current Version | Previous Version | Text Only | Print | Product List | Glossary Off
Versions: 1 2 3 4 5 6 7 8 9 10 11 12 13 14

000
FTUS43 KBIS 010521
TAFMOT
TAF
KMOT 010521Z 0106/0206 01005KT P6SM SKC
     FM011900 30005KT P6SM SKC
     FM020200 22004KT P6SM SKC=

USA.gov is the U.S. government's official web portal to all federal, state and local government web resources and services.